createdAt,value
2019-06-20T00:01:09.100Z,19.45
2019-06-20T00:03:16.683Z,18.90
2019-06-20T00:05:24.331Z,18.00
2019-06-20T00:07:31.872Z,18.42
2019-06-20T00:09:39.496Z,19.12
2019-06-20T00:11:46.880Z,18.23
2019-06-20T00:13:54.358Z,18.17
2019-06-20T00:16:01.861Z,19.07
2019-06-20T00:18:09.432Z,18.12
2019-06-20T00:20:17.251Z,18.55
2019-06-20T00:22:24.777Z,19.40
2019-06-20T00:24:32.242Z,18.12
2019-06-20T00:26:39.736Z,18.82
2019-06-20T00:28:47.095Z,18.35
2019-06-20T00:30:54.490Z,18.48
2019-06-20T00:33:01.886Z,18.20
2019-06-20T00:35:09.811Z,19.05
2019-06-20T00:37:17.194Z,18.92
2019-06-20T00:39:24.639Z,19.85
2019-06-20T00:41:32.090Z,19.57
2019-06-20T00:43:39.571Z,18.80
2019-06-20T00:45:47.110Z,20.48
2019-06-20T00:47:54.718Z,20.32
2019-06-20T00:50:02.226Z,19.87
2019-06-20T00:52:09.728Z,19.17
2019-06-20T00:54:17.443Z,19.25
2019-06-20T00:56:24.881Z,19.77
2019-06-20T00:58:32.247Z,18.55
2019-06-20T01:00:39.844Z,18.37
2019-06-20T01:02:47.326Z,19.40
2019-06-20T01:04:54.711Z,18.40
2019-06-20T01:07:02.167Z,19.15
2019-06-20T01:09:10.574Z,19.05
2019-06-20T01:11:18.002Z,19.00
2019-06-20T01:13:33.603Z,18.30
2019-06-20T01:15:34.556Z,19.32
2019-06-20T01:17:41.871Z,19.25
2019-06-20T01:19:49.342Z,19.23
2019-06-20T01:21:57.239Z,19.40
2019-06-20T01:24:04.774Z,18.67
2019-06-20T01:26:12.332Z,18.67
2019-06-20T01:28:19.701Z,18.75
2019-06-20T01:30:27.120Z,18.55
2019-06-20T01:32:34.532Z,18.23
2019-06-20T01:34:41.948Z,18.17
2019-06-20T01:36:49.391Z,18.62
2019-06-20T01:38:56.853Z,17.50
2019-06-20T01:41:06.176Z,16.67
2019-06-20T01:43:13.537Z,17.10
2019-06-20T01:45:21.115Z,17.67
2019-06-20T01:47:28.496Z,16.90
2019-06-20T01:49:35.830Z,17.65
2019-06-20T01:51:43.209Z,16.93
2019-06-20T01:53:51.482Z,16.82
2019-06-20T01:55:58.945Z,17.77
2019-06-20T01:58:07.259Z,16.75
2019-06-20T02:00:25.918Z,16.05
2019-06-20T02:02:33.305Z,17.67
2019-06-20T02:04:40.850Z,17.37
2019-06-20T02:06:48.283Z,17.02
2019-06-20T02:08:55.705Z,17.60
2019-06-20T02:11:03.150Z,17.00
2019-06-20T02:13:10.744Z,17.10
2019-06-20T02:15:18.325Z,17.20
2019-06-20T02:17:25.805Z,17.70
2019-06-20T02:19:33.293Z,17.17
2019-06-20T02:21:40.779Z,15.88
2019-06-20T02:23:48.214Z,16.12
2019-06-20T02:25:55.716Z,16.40
2019-06-20T02:28:03.063Z,16.17
2019-06-20T02:30:11.072Z,15.72
2019-06-20T02:32:18.506Z,17.15
2019-06-20T02:34:25.961Z,16.80
2019-06-20T02:36:33.356Z,17.15
2019-06-20T02:38:40.722Z,17.12
2019-06-20T02:40:48.239Z,16.87
2019-06-20T02:42:56.618Z,17.20
2019-06-20T02:45:04.041Z,16.45
2019-06-20T02:47:11.429Z,16.30
2019-06-20T02:49:18.863Z,16.82
2019-06-20T02:51:28.119Z,16.82
2019-06-20T02:53:35.593Z,16.50
2019-06-20T02:55:43.082Z,16.77
2019-06-20T02:57:50.605Z,15.45
2019-06-20T02:59:58.026Z,17.07
2019-06-20T03:02:05.419Z,16.80
2019-06-20T03:04:12.830Z,16.48
2019-06-20T03:06:20.365Z,17.00
2019-06-20T03:08:28.032Z,16.32
2019-06-20T03:10:35.486Z,17.48
2019-06-20T03:12:42.923Z,16.82
2019-06-20T03:14:50.395Z,17.20
2019-06-20T03:16:57.857Z,16.60
2019-06-20T03:19:05.210Z,16.67
2019-06-20T03:21:12.647Z,15.80
2019-06-20T03:23:20.097Z,17.05
2019-06-20T03:25:27.418Z,16.75
2019-06-20T03:27:34.806Z,16.70
2019-06-20T03:29:42.217Z,15.70
2019-06-20T03:31:50.525Z,16.30
2019-06-20T03:33:57.923Z,15.60
2019-06-20T03:36:05.420Z,16.35
2019-06-20T03:38:12.869Z,16.65
2019-06-20T03:40:20.581Z,16.15
2019-06-20T03:42:28.031Z,15.72
2019-06-20T03:44:35.437Z,16.60
2019-06-20T03:46:42.896Z,15.58
2019-06-20T03:48:50.557Z,16.40
2019-06-20T03:50:57.931Z,17.05
2019-06-20T03:53:05.363Z,16.37
2019-06-20T03:55:13.031Z,16.45
2019-06-20T03:57:20.521Z,16.32
2019-06-20T03:59:27.943Z,15.78
2019-06-20T04:01:35.432Z,15.55
2019-06-20T04:03:42.841Z,15.18
2019-06-20T04:05:50.178Z,16.12
2019-06-20T04:07:57.954Z,17.15
2019-06-20T04:10:05.582Z,16.23
2019-06-20T04:12:12.991Z,15.63
2019-06-20T04:14:20.429Z,15.38
2019-06-20T04:16:27.937Z,15.20
2019-06-20T04:18:35.658Z,15.05
2019-06-20T04:20:43.425Z,16.35
2019-06-20T04:22:50.959Z,15.25
2019-06-20T04:24:58.649Z,15.00
2019-06-20T04:27:06.181Z,14.47
2019-06-20T04:29:13.577Z,14.87
2019-06-20T04:31:21.085Z,15.13
2019-06-20T04:33:28.634Z,16.30
2019-06-20T04:35:36.111Z,15.30
2019-06-20T04:37:43.671Z,14.35
2019-06-20T04:39:51.325Z,13.58
2019-06-20T04:41:58.968Z,14.28
2019-06-20T04:44:06.577Z,14.07
2019-06-20T04:46:23.178Z,14.00
2019-06-20T04:48:30.639Z,13.70
2019-06-20T04:50:38.428Z,13.70
2019-06-20T04:52:45.988Z,13.53
2019-06-20T04:54:53.579Z,14.43
2019-06-20T04:57:01.030Z,14.23
2019-06-20T04:59:08.463Z,13.68
2019-06-20T05:01:15.959Z,14.43
2019-06-20T05:03:23.403Z,13.78
2019-06-20T05:05:30.920Z,14.18
2019-06-20T05:07:38.338Z,13.28
2019-06-20T05:09:45.821Z,13.80
2019-06-20T05:11:53.228Z,13.55
2019-06-20T05:14:01.493Z,14.07
2019-06-20T05:16:08.901Z,12.85
2019-06-20T05:18:16.789Z,13.20
2019-06-20T05:20:24.170Z,12.73
2019-06-20T05:22:31.598Z,13.18
2019-06-20T05:24:39.221Z,13.38
2019-06-20T05:26:46.630Z,12.85
2019-06-20T05:28:54.487Z,13.50
2019-06-20T05:31:02.145Z,13.00
2019-06-20T05:33:09.608Z,13.10
2019-06-20T05:35:17.517Z,12.45
2019-06-20T05:37:25.090Z,13.40
2019-06-20T05:39:32.650Z,12.37
2019-06-20T05:41:40.168Z,12.75
2019-06-20T05:43:47.788Z,13.22
2019-06-20T05:46:08.325Z,13.78
2019-06-20T05:48:04.531Z,13.08
2019-06-20T05:50:13.328Z,13.75
2019-06-20T05:52:21.243Z,12.55
2019-06-20T05:54:28.764Z,12.45
2019-06-20T05:56:36.421Z,12.35
2019-06-20T05:58:44.189Z,13.55
2019-06-20T06:00:51.918Z,12.93
2019-06-20T06:02:59.491Z,12.93
2019-06-20T06:05:08.693Z,12.65
2019-06-20T06:07:17.062Z,12.73
2019-06-20T06:09:24.759Z,13.13
2019-06-20T06:11:32.466Z,12.58
2019-06-20T06:13:40.191Z,12.90
2019-06-20T06:15:47.834Z,13.15
2019-06-20T06:17:55.292Z,12.53
2019-06-20T06:20:04.668Z,13.58
2019-06-20T06:22:12.979Z,12.93
2019-06-20T06:24:20.746Z,13.48
2019-06-20T06:26:28.377Z,13.75
2019-06-20T06:28:35.922Z,12.33
2019-06-20T06:30:43.700Z,12.82
2019-06-20T06:32:51.263Z,13.13
2019-06-20T06:34:59.495Z,12.88
2019-06-20T06:37:07.683Z,12.93
2019-06-20T06:39:16.221Z,12.93
2019-06-20T06:41:23.708Z,13.50
2019-06-20T06:43:31.109Z,13.43
2019-06-20T06:45:38.581Z,13.08
2019-06-20T06:47:46.125Z,13.65
2019-06-20T06:49:53.587Z,13.62
2019-06-20T06:52:01.211Z,13.25
2019-06-20T06:54:08.819Z,13.18
2019-06-20T06:56:16.566Z,13.28
2019-06-20T06:58:24.126Z,12.80
2019-06-20T07:00:31.683Z,13.48
2019-06-20T07:02:39.187Z,13.95
2019-06-20T07:04:46.715Z,13.40
2019-06-20T07:06:54.220Z,14.20
2019-06-20T07:09:01.972Z,13.65
2019-06-20T07:11:09.516Z,13.95
2019-06-20T07:13:17.273Z,13.48
2019-06-20T07:15:25.363Z,13.58
2019-06-20T07:17:32.948Z,13.70
2019-06-20T07:19:40.646Z,13.65
2019-06-20T07:21:49.957Z,13.50
2019-06-20T07:23:59.393Z,14.18
2019-06-20T07:26:07.426Z,13.53
2019-06-20T07:28:14.927Z,13.65
2019-06-20T07:30:25.706Z,13.48
2019-06-20T07:32:33.590Z,13.08
2019-06-20T07:34:41.471Z,13.40
2019-06-20T07:36:49.092Z,14.33
2019-06-20T07:38:56.736Z,13.48
2019-06-20T07:41:07.501Z,13.62
2019-06-20T07:43:16.121Z,13.95
2019-06-20T07:45:30.561Z,13.95
2019-06-20T07:47:38.877Z,14.23
2019-06-20T07:49:46.787Z,14.05
2019-06-20T07:51:54.372Z,13.55
2019-06-20T07:54:02.273Z,14.30
2019-06-20T07:56:10.006Z,12.75
2019-06-20T07:58:17.712Z,13.93
2019-06-20T08:00:26.015Z,13.70
2019-06-20T08:02:33.611Z,14.60
2019-06-20T08:04:41.050Z,13.68
2019-06-20T08:06:48.715Z,14.05
2019-06-20T08:08:56.323Z,15.08
2019-06-20T08:11:03.850Z,14.20
2019-06-20T08:13:11.675Z,14.23
2019-06-20T08:15:20.167Z,14.38
2019-06-20T08:17:35.276Z,14.18
2019-06-20T08:19:37.222Z,13.70
2019-06-20T08:21:44.793Z,13.60
2019-06-20T08:23:52.655Z,14.93
2019-06-20T08:26:00.512Z,14.40
2019-06-20T08:28:08.449Z,14.05
2019-06-20T08:30:17.186Z,13.95
2019-06-20T08:32:24.850Z,13.98
2019-06-20T08:34:32.476Z,13.30
2019-06-20T08:36:39.923Z,13.98
2019-06-20T08:38:47.640Z,13.43
2019-06-20T08:40:56.566Z,13.58
2019-06-20T08:43:06.240Z,13.62
2019-06-20T08:45:14.632Z,13.28
2019-06-20T08:47:22.269Z,13.83
2019-06-20T08:49:30.070Z,14.30
2019-06-20T08:51:37.527Z,14.05
2019-06-20T08:53:45.193Z,12.98
2019-06-20T08:55:52.744Z,12.28
2019-06-20T08:58:01.573Z,12.53
2019-06-20T09:00:10.547Z,13.20
2019-06-20T09:02:18.284Z,12.60
2019-06-20T09:04:25.735Z,13.70
2019-06-20T09:06:33.204Z,12.37
2019-06-20T09:08:40.678Z,12.95
2019-06-20T09:10:48.186Z,12.73
2019-06-20T09:12:57.054Z,12.23
2019-06-20T09:15:05.026Z,13.05
2019-06-20T09:17:12.579Z,12.03
2019-06-20T09:19:19.997Z,12.93
2019-06-20T09:21:27.588Z,12.80
2019-06-20T09:23:35.752Z,13.30
2019-06-20T09:25:43.900Z,12.90
2019-06-20T09:27:52.871Z,13.25
2019-06-20T09:30:00.849Z,13.45
2019-06-20T09:32:08.605Z,13.65
2019-06-20T09:34:17.175Z,13.25
2019-06-20T09:36:24.951Z,13.53
2019-06-20T09:38:32.532Z,13.80
2019-06-20T09:40:40.440Z,13.10
2019-06-20T09:42:48.051Z,13.60
2019-06-20T09:44:56.411Z,13.58
2019-06-20T09:47:04.314Z,13.93
2019-06-20T09:49:12.637Z,14.47
2019-06-20T09:51:20.613Z,13.93
2019-06-20T09:53:29.139Z,14.00
2019-06-20T09:55:37.060Z,13.70
2019-06-20T09:57:44.699Z,13.13
2019-06-20T10:00:03.118Z,13.25
2019-06-20T10:02:02.163Z,14.03
2019-06-20T10:04:10.117Z,13.43
2019-06-20T10:06:17.610Z,13.98
2019-06-20T10:08:25.004Z,14.03
2019-06-20T10:10:33.575Z,12.78
2019-06-20T10:12:41.235Z,13.48
2019-06-20T10:14:49.555Z,13.48
2019-06-20T10:16:57.232Z,13.88
2019-06-20T10:19:05.010Z,14.10
2019-06-20T10:21:12.674Z,14.00
2019-06-20T10:23:20.471Z,13.95
2019-06-20T10:25:28.027Z,14.18
2019-06-20T10:27:36.278Z,13.50
2019-06-20T10:29:44.421Z,13.90
2019-06-20T10:31:53.193Z,13.10
2019-06-20T10:34:01.138Z,13.25
2019-06-20T10:36:08.974Z,12.05
2019-06-20T10:38:16.461Z,13.58
2019-06-20T10:40:25.015Z,13.05
2019-06-20T10:42:34.611Z,12.58
2019-06-20T10:44:43.007Z,12.15
2019-06-20T10:46:51.572Z,12.53
2019-06-20T10:48:59.263Z,12.23
2019-06-20T10:51:25.154Z,12.15
2019-06-20T10:53:33.026Z,11.50
2019-06-20T10:55:41.979Z,12.63
2019-06-20T10:57:51.703Z,11.95
2019-06-20T10:59:59.946Z,11.90
2019-06-20T11:02:07.771Z,11.20
2019-06-20T11:04:15.251Z,11.12
2019-06-20T11:06:22.914Z,11.73
2019-06-20T11:08:30.461Z,11.08
2019-06-20T11:10:40.379Z,11.38
2019-06-20T11:12:54.909Z,11.25
2019-06-20T11:14:57.795Z,11.88
2019-06-20T11:17:05.414Z,10.93
2019-06-20T11:19:13.015Z,11.00
2019-06-20T11:21:20.848Z,11.70
2019-06-20T11:23:28.660Z,11.70
2019-06-20T11:25:37.006Z,11.20
2019-06-20T11:27:47.113Z,11.57
2019-06-20T11:29:55.032Z,11.97
2019-06-20T11:32:02.559Z,11.40
2019-06-20T11:34:10.135Z,11.93
2019-06-20T11:36:17.809Z,12.10
2019-06-20T11:38:25.431Z,12.20
2019-06-20T11:40:33.397Z,11.63
2019-06-20T11:42:41.975Z,12.40
2019-06-20T11:44:49.921Z,12.05
2019-06-20T11:46:57.485Z,12.45
2019-06-20T11:49:05.077Z,12.58
2019-06-20T11:51:12.833Z,12.45
2019-06-20T11:53:20.284Z,11.93
2019-06-20T11:55:28.293Z,11.57
2019-06-20T11:57:38.391Z,11.55
2019-06-20T11:59:45.917Z,10.82
2019-06-20T12:01:53.692Z,11.53
2019-06-20T12:04:01.262Z,11.05
2019-06-20T12:06:08.723Z,10.10
2019-06-20T12:08:18.418Z,10.70
2019-06-20T12:10:27.243Z,10.48
2019-06-20T12:12:36.516Z,10.45
2019-06-20T12:14:44.716Z,10.63
2019-06-20T12:16:52.761Z,9.75
2019-06-20T12:19:01.189Z,10.68
2019-06-20T12:21:09.222Z,9.90
2019-06-20T12:23:17.006Z,10.72
2019-06-20T12:25:26.249Z,9.40
2019-06-20T12:27:35.011Z,9.13
2019-06-20T12:29:44.382Z,9.73
2019-06-20T12:31:52.881Z,8.90
2019-06-20T12:34:00.546Z,8.48
2019-06-20T12:36:08.125Z,8.58
2019-06-20T12:38:15.698Z,8.88
2019-06-20T12:40:23.868Z,9.58
2019-06-20T12:42:31.362Z,9.18
2019-06-20T12:44:40.055Z,9.28
2019-06-20T12:46:47.594Z,8.95
2019-06-20T12:48:55.157Z,8.53
2019-06-20T12:51:02.923Z,8.45
2019-06-20T12:53:10.873Z,8.63
2019-06-20T12:55:18.996Z,7.50
2019-06-20T12:57:26.944Z,7.90
2019-06-20T12:59:35.012Z,8.20
2019-06-20T13:01:47.341Z,7.65
2019-06-20T13:03:53.109Z,7.80
2019-06-20T13:06:00.929Z,7.40
2019-06-20T13:08:08.816Z,6.70
2019-06-20T13:10:18.520Z,7.80
2019-06-20T13:12:26.468Z,6.85
2019-06-20T13:14:35.304Z,7.00
2019-06-20T13:16:43.369Z,7.17
2019-06-20T13:18:51.852Z,6.10
2019-06-20T13:20:59.777Z,5.72
2019-06-20T13:23:07.523Z,6.40
2019-06-20T13:25:16.400Z,6.42
2019-06-20T13:27:24.096Z,6.17
2019-06-20T13:29:32.404Z,6.58
2019-06-20T13:31:56.487Z,6.08
2019-06-20T13:33:51.327Z,6.78
2019-06-20T13:35:59.499Z,6.90
2019-06-20T13:38:07.655Z,6.45
2019-06-20T13:40:16.258Z,6.17
2019-06-20T13:42:24.025Z,5.15
2019-06-20T13:44:31.664Z,5.87
2019-06-20T13:46:40.048Z,5.12
2019-06-20T13:48:49.669Z,5.75
2019-06-20T13:50:57.298Z,5.37
2019-06-20T13:53:06.103Z,5.75
2019-06-20T13:55:14.144Z,5.53
2019-06-20T13:57:21.830Z,5.65
2019-06-20T13:59:29.385Z,5.25
2019-06-20T14:01:36.888Z,4.67
2019-06-20T14:03:45.696Z,4.20
2019-06-20T14:05:53.852Z,4.10
2019-06-20T14:08:01.355Z,5.08
2019-06-20T14:10:09.763Z,5.10
2019-06-20T14:12:17.646Z,4.67
2019-06-20T14:14:25.129Z,4.40
2019-06-20T14:16:32.968Z,4.80
2019-06-20T14:18:42.558Z,3.85
2019-06-20T14:20:50.794Z,3.52
2019-06-20T14:22:58.549Z,3.50
2019-06-20T14:25:06.913Z,3.75
2019-06-20T14:27:14.371Z,4.12
2019-06-20T14:29:21.979Z,3.87
2019-06-20T14:31:30.924Z,5.83
2019-06-20T14:33:38.479Z,5.95
2019-06-20T14:35:47.836Z,6.50
2019-06-20T14:37:56.307Z,6.17
2019-06-20T14:40:03.931Z,5.42
2019-06-20T14:42:11.781Z,6.05
2019-06-20T14:44:19.486Z,5.75
2019-06-20T14:46:27.536Z,5.22
2019-06-20T14:48:35.079Z,5.40
2019-06-20T14:50:44.623Z,6.10
2019-06-20T14:52:52.722Z,4.90
2019-06-20T14:55:01.618Z,4.55
2019-06-20T14:57:09.209Z,4.60
2019-06-20T14:59:16.639Z,4.75
2019-06-20T15:01:24.355Z,4.55
2019-06-20T15:03:31.989Z,4.42
2019-06-20T15:05:39.581Z,4.85
2019-06-20T15:07:49.429Z,4.50
2019-06-20T15:09:57.039Z,5.12
2019-06-20T15:12:04.506Z,4.70
2019-06-20T15:14:12.021Z,5.30
2019-06-20T15:16:19.565Z,5.17
2019-06-20T15:18:27.201Z,5.20
2019-06-20T15:20:34.649Z,5.00
2019-06-20T15:22:42.213Z,4.92
2019-06-20T15:24:51.739Z,5.22
2019-06-20T15:26:58.886Z,5.45
2019-06-20T15:29:06.511Z,5.33
2019-06-20T15:31:13.989Z,5.12
2019-06-20T15:33:21.393Z,5.33
2019-06-20T15:35:29.018Z,5.60
2019-06-20T15:37:36.469Z,5.45
2019-06-20T15:39:43.920Z,5.58
2019-06-20T15:41:51.701Z,5.67
2019-06-20T15:43:59.168Z,5.22
2019-06-20T15:46:06.760Z,5.60
2019-06-20T15:48:14.490Z,4.92
2019-06-20T15:50:22.096Z,4.75
2019-06-20T15:52:29.543Z,5.15
2019-06-20T15:54:37.020Z,6.08
2019-06-20T15:56:44.645Z,5.65
2019-06-20T15:58:52.233Z,5.40
2019-06-20T16:00:59.902Z,5.40
2019-06-20T16:03:10.232Z,5.40
2019-06-20T16:05:16.989Z,5.60
2019-06-20T16:07:24.539Z,5.62
2019-06-20T16:09:31.965Z,5.25
2019-06-20T16:11:39.434Z,5.42
2019-06-20T16:13:50.070Z,5.55
2019-06-20T16:15:56.387Z,5.37
2019-06-20T16:18:03.831Z,5.53
2019-06-20T16:20:11.652Z,5.45
2019-06-20T16:22:19.183Z,5.40
2019-06-20T16:24:27.554Z,5.10
2019-06-20T16:26:35.248Z,5.40
2019-06-20T16:28:42.766Z,5.05
2019-06-20T16:30:50.318Z,5.80
2019-06-20T16:32:57.800Z,5.60
2019-06-20T16:35:05.809Z,5.15
2019-06-20T16:37:13.598Z,5.87
2019-06-20T16:39:21.117Z,5.45
2019-06-20T16:41:28.626Z,6.30
2019-06-20T16:43:36.132Z,6.10
2019-06-20T16:45:44.426Z,6.42
2019-06-20T16:47:51.929Z,6.47
2019-06-20T16:49:59.809Z,6.22
2019-06-20T16:52:07.747Z,6.28
2019-06-20T16:54:15.318Z,6.60
2019-06-20T16:56:23.140Z,6.30
2019-06-20T16:58:30.652Z,6.85
2019-06-20T17:00:38.650Z,7.03
2019-06-20T17:02:46.177Z,7.72
2019-06-20T17:04:56.438Z,7.15
2019-06-20T17:07:02.901Z,8.28
2019-06-20T17:09:11.054Z,7.95
2019-06-20T17:11:18.555Z,7.75
2019-06-20T17:13:26.199Z,8.18
2019-06-20T17:15:33.894Z,7.78
2019-06-20T17:17:41.550Z,7.42
2019-06-20T17:19:49.211Z,7.83
2019-06-20T17:21:56.892Z,8.53
2019-06-20T17:24:04.777Z,8.13
2019-06-20T17:26:12.307Z,7.70
2019-06-20T17:28:19.770Z,7.95
2019-06-20T17:30:29.575Z,8.58
2019-06-20T17:32:37.118Z,8.80
2019-06-20T17:34:44.695Z,8.18
2019-06-20T17:36:52.448Z,8.78
2019-06-20T17:39:00.009Z,9.25
2019-06-20T17:41:08.105Z,8.98
2019-06-20T17:43:15.696Z,8.78
2019-06-20T17:45:25.386Z,8.78
2019-06-20T17:47:32.908Z,9.95
2019-06-20T17:49:40.747Z,9.20
2019-06-20T17:51:48.537Z,9.20
2019-06-20T17:53:56.089Z,8.38
2019-06-20T17:56:03.849Z,8.83
2019-06-20T17:58:11.511Z,9.03
2019-06-20T18:00:20.721Z,8.85
2019-06-20T18:02:28.795Z,9.08
2019-06-20T18:04:36.290Z,9.30
2019-06-20T18:06:44.740Z,8.65
2019-06-20T18:08:53.195Z,9.15
2019-06-20T18:11:00.633Z,8.83
2019-06-20T18:13:08.355Z,8.78
2019-06-20T18:15:17.431Z,8.78
2019-06-20T18:17:25.492Z,9.10
2019-06-20T18:19:33.054Z,9.10
2019-06-20T18:21:40.614Z,9.95
2019-06-20T18:23:48.226Z,10.55
2019-06-20T18:25:56.136Z,10.10
2019-06-20T18:28:04.059Z,10.32
2019-06-20T18:30:13.780Z,11.08
2019-06-20T18:32:21.680Z,9.65
2019-06-20T18:34:30.579Z,9.48
2019-06-20T18:36:38.597Z,9.35
2019-06-20T18:38:46.450Z,9.58
2019-06-20T18:40:54.782Z,9.88
2019-06-20T18:43:02.805Z,10.15
2019-06-20T18:45:11.339Z,10.13
2019-06-20T18:47:21.874Z,10.28
2019-06-20T18:49:28.481Z,10.15
2019-06-20T18:51:37.010Z,11.38
2019-06-20T18:53:46.082Z,11.28
2019-06-20T18:55:53.847Z,10.68
2019-06-20T18:58:01.883Z,9.95
2019-06-20T19:00:12.131Z,10.13
2019-06-20T19:02:19.639Z,9.60
2019-06-20T19:04:27.604Z,9.75
2019-06-20T19:06:36.513Z,9.48
2019-06-20T19:08:44.318Z,9.80
2019-06-20T19:10:51.937Z,10.25
2019-06-20T19:12:59.591Z,10.48
2019-06-20T19:15:08.237Z,9.68
2019-06-20T19:17:16.076Z,9.75
2019-06-20T19:19:25.231Z,10.00
2019-06-20T19:21:33.918Z,9.75
2019-06-20T19:23:41.487Z,10.38
2019-06-20T19:25:49.056Z,10.90
2019-06-20T19:27:56.824Z,10.68
2019-06-20T19:30:05.024Z,10.35
2019-06-20T19:32:12.530Z,10.10
2019-06-20T19:34:20.038Z,10.38
2019-06-20T19:36:27.575Z,10.28
2019-06-20T19:38:35.455Z,11.28
2019-06-20T19:40:49.767Z,10.08
2019-06-20T19:42:57.793Z,11.22
2019-06-20T19:45:06.294Z,10.70
2019-06-20T19:47:13.927Z,10.43
2019-06-20T19:49:21.581Z,10.28
2019-06-20T19:51:29.433Z,10.28
2019-06-20T19:53:37.357Z,10.38
2019-06-20T19:55:45.285Z,10.03
2019-06-20T19:57:53.189Z,9.70
2019-06-20T20:00:00.904Z,10.50
2019-06-20T20:02:09.412Z,10.53
2019-06-20T20:04:17.319Z,10.63
2019-06-20T20:06:25.238Z,10.10
2019-06-20T20:08:33.386Z,10.10
2019-06-20T20:10:48.720Z,10.30
2019-06-20T20:12:57.419Z,9.38
2019-06-20T20:15:05.367Z,10.18
2019-06-20T20:17:13.368Z,9.88
2019-06-20T20:19:21.872Z,10.60
2019-06-20T20:21:29.672Z,11.65
2019-06-20T20:23:38.585Z,10.63
2019-06-20T20:25:46.761Z,9.75
2019-06-20T20:27:54.812Z,8.38
2019-06-20T20:30:03.415Z,8.48
2019-06-20T20:32:11.136Z,7.42
2019-06-20T20:34:19.026Z,7.35
2019-06-20T20:36:26.755Z,8.15
2019-06-20T20:38:34.685Z,7.33
2019-06-20T20:40:42.349Z,7.00
2019-06-20T20:42:50.201Z,7.00
2019-06-20T20:44:58.250Z,7.17
2019-06-20T20:47:06.005Z,7.33
2019-06-20T20:49:13.528Z,6.90
2019-06-20T20:51:21.445Z,6.92
2019-06-20T20:53:28.958Z,6.90
2019-06-20T20:55:36.529Z,6.45
2019-06-20T20:57:45.047Z,6.53
2019-06-20T20:59:52.578Z,6.65
2019-06-20T21:02:00.505Z,6.12
2019-06-20T21:04:09.232Z,6.58
2019-06-20T21:06:17.046Z,6.50
2019-06-20T21:08:24.705Z,8.43
2019-06-20T21:10:32.210Z,9.45
2019-06-20T21:12:39.850Z,6.67
2019-06-20T21:14:47.703Z,6.20
2019-06-20T21:16:55.311Z,6.20
2019-06-20T21:19:03.226Z,4.95
2019-06-20T21:21:11.028Z,5.78
2019-06-20T21:23:18.783Z,5.55
2019-06-20T21:25:26.792Z,5.20
2019-06-20T21:27:34.783Z,6.08
2019-06-20T21:29:42.404Z,6.92
2019-06-20T21:31:49.896Z,5.83
2019-06-20T21:33:57.346Z,6.20
2019-06-20T21:36:08.757Z,6.60
2019-06-20T21:38:14.876Z,6.95
2019-06-20T21:40:22.551Z,7.78
2019-06-20T21:42:29.984Z,8.58
2019-06-20T21:44:37.517Z,8.38
2019-06-20T21:46:44.975Z,7.90
2019-06-20T21:48:52.682Z,7.03
2019-06-20T21:51:00.222Z,6.75
2019-06-20T21:53:07.734Z,6.92
2019-06-20T21:55:17.221Z,7.87
2019-06-20T21:57:24.875Z,7.70
2019-06-20T21:59:32.413Z,7.65
2019-06-20T22:01:40.679Z,7.42
2019-06-20T22:03:48.350Z,7.30
2019-06-20T22:05:55.975Z,7.42
2019-06-20T22:08:03.747Z,7.33
2019-06-20T22:10:12.154Z,7.50
2019-06-20T22:12:19.813Z,7.60
2019-06-20T22:14:27.200Z,7.67
2019-06-20T22:16:35.008Z,7.80
2019-06-20T22:18:43.209Z,7.42
2019-06-20T22:20:49.916Z,6.83
2019-06-20T22:22:57.367Z,7.10
2019-06-20T22:25:05.977Z,6.53
2019-06-20T22:27:13.582Z,6.42
2019-06-20T22:29:21.233Z,6.95
2019-06-20T22:31:28.750Z,6.05
2019-06-20T22:33:36.287Z,5.90
2019-06-20T22:35:45.879Z,6.60
2019-06-20T22:37:53.764Z,6.35
2019-06-20T22:40:01.260Z,6.05
2019-06-20T22:42:08.696Z,6.85
2019-06-20T22:44:16.101Z,5.92
2019-06-20T22:46:23.622Z,6.95
2019-06-20T22:48:31.116Z,6.62
2019-06-20T22:50:38.803Z,6.05
2019-06-20T22:52:46.341Z,6.87
2019-06-20T22:54:53.768Z,6.53
2019-06-20T22:57:01.423Z,6.40
2019-06-20T22:59:08.925Z,6.90
2019-06-20T23:01:16.378Z,6.95
2019-06-20T23:03:23.895Z,7.35
2019-06-20T23:05:31.333Z,8.23
2019-06-20T23:07:38.879Z,11.22
2019-06-20T23:09:46.325Z,10.78
2019-06-20T23:11:53.870Z,9.75
2019-06-20T23:14:01.448Z,9.85
2019-06-20T23:16:09.033Z,10.20
2019-06-20T23:18:16.605Z,11.35
2019-06-20T23:20:24.726Z,12.30
2019-06-20T23:22:32.575Z,11.48
2019-06-20T23:24:40.432Z,9.70
2019-06-20T23:26:47.981Z,10.03
2019-06-20T23:29:13.236Z,10.40
2019-06-20T23:31:20.677Z,10.82
2019-06-20T23:33:28.111Z,11.08
2019-06-20T23:35:35.949Z,9.95
2019-06-20T23:37:43.587Z,10.10
2019-06-20T23:39:51.072Z,8.35
2019-06-20T23:41:58.626Z,9.13
2019-06-20T23:44:07.208Z,14.28
2019-06-20T23:46:14.706Z,21.73
2019-06-20T23:48:22.318Z,13.00
2019-06-20T23:50:29.981Z,14.20
2019-06-20T23:52:39.038Z,13.65
2019-06-20T23:54:46.487Z,10.95
2019-06-20T23:56:53.906Z,7.83
2019-06-20T23:59:01.527Z,7.75
